Etusivu
METAR-TAF:

METAR-TAF

Lentoasemat :

Djerba, Tunisia

Leveyspiiri: 33-52N, Pituuspiiri: 010-46E, korkeus merenpinnasta: 3 m

Tämänhetkinen sää

Tämä raportti tehtiin 18 minuuttia sitten, kello 15.30 UTC
Tuuli 13 kn lännestä
Lämpötila 16°C
Kosteus 39%
Ilmanpaine 1023 hPa
Näkyvyys 10 km tai enemmän
Muutamia pilviä 3000 ft:n korkeudessa

METAR: DTTJ 171530Z 27013KT 9999 FEW030 16/02 Q1023 NOSIG

Aika: 16:48 (15:48 UTC)

Sääennuste

Tämä raportti tehtiin 4 tuntia ja 48 minuuttia sitten, kello 11.00 UTC
Ennuste voimassa 17. päivästä klo 12 UTC - 18. päivään klo 12 UTC
Tuuli 15 kn lännestä/luoteesta
Näkyvyys 10 km tai enemmän
Muutamia pilviä 2000 ft:n korkeudessa
Tulossa
17. päivästä klo 19 UTC - 17. päivään klo 21 UTC
Tuuli 25 kn lännestä
Ajoittain
17. päivästä klo 22 UTC - 18. päivään klo 06 UTC
Tuuli 27 kn lännestä puuskistuen 37 kn:hen
Näkyvyys: 3000 m
hiekkaa

TAF: DTTJ 171100Z 1712/1812 29015KT 9999 FEW020 BECMG 1719/1721 260025KT TEMPO 1722/1806 28027G37KT 3000 SA

Säähavainnot ja -ennusteet yli 4000 lentoasemalta (METAR- ja TAF-raportit).

Käytössä olevat sääasemat on merkitty karttaan keltaisilla ja punaisilla pisteillä.

Aseta hiiri pisteen päälle nähdäksesi sääaseman nimen.

Klikkaa sitten nähdäksesi säähavainnot ja -ennusteet.

Kartan vaihtaminen: klikkaa mustalla rastilla varustettuja vihreitä pisteitä, niin voit zoomata sisään; viivalla varustettua vihreää pistettä, niin voit zoomata ulos tai vihreitä nuolia, niin pääset viereisille kartoille.


METAR-TAF: